sensor_id;sensor_type;location;lat;lon;timestamp;P1;durP1;ratioP1;P2;durP2;ratioP2
2011;SDS011;1009;51.436;6.972;2023-06-14T00:00:28;5.60;;;4.47;;
2011;SDS011;1009;51.436;6.972;2023-06-14T00:03:05;4.90;;;4.33;;
2011;SDS011;1009;51.436;6.972;2023-06-14T00:05:33;6.80;;;5.33;;
2011;SDS011;1009;51.436;6.972;2023-06-14T00:08:05;7.10;;;4.80;;
2011;SDS011;1009;51.436;6.972;2023-06-14T00:10:33;7.87;;;4.87;;
2011;SDS011;1009;51.436;6.972;2023-06-14T00:13:00;5.67;;;4.50;;
2011;SDS011;1009;51.436;6.972;2023-06-14T00:15:28;4.63;;;4.20;;
2011;SDS011;1009;51.436;6.972;2023-06-14T00:18:06;7.47;;;4.93;;
2011;SDS011;1009;51.436;6.972;2023-06-14T00:20:40;5.07;;;4.57;;
2011;SDS011;1009;51.436;6.972;2023-06-14T00:23:08;6.87;;;4.80;;
2011;SDS011;1009;51.436;6.972;2023-06-14T00:25:37;5.40;;;3.93;;
2011;SDS011;1009;51.436;6.972;2023-06-14T00:28:04;5.00;;;4.30;;
2011;SDS011;1009;51.436;6.972;2023-06-14T00:30:31;4.60;;;4.20;;
2011;SDS011;1009;51.436;6.972;2023-06-14T00:32:58;4.70;;;4.27;;
2011;SDS011;1009;51.436;6.972;2023-06-14T00:35:28;5.20;;;4.37;;
2011;SDS011;1009;51.436;6.972;2023-06-14T00:38:01;6.57;;;4.27;;
2011;SDS011;1009;51.436;6.972;2023-06-14T00:40:29;5.40;;;4.30;;
2011;SDS011;1009;51.436;6.972;2023-06-14T00:42:56;7.07;;;4.97;;
2011;SDS011;1009;51.436;6.972;2023-06-14T00:45:22;5.10;;;4.30;;
2011;SDS011;1009;51.436;6.972;2023-06-14T00:47:49;7.53;;;4.13;;
2011;SDS011;1009;51.436;6.972;2023-06-14T00:50:20;6.87;;;4.17;;
2011;SDS011;1009;51.436;6.972;2023-06-14T00:52:48;5.50;;;4.23;;
2011;SDS011;1009;51.436;6.972;2023-06-14T00:55:15;4.93;;;4.13;;
2011;SDS011;1009;51.436;6.972;2023-06-14T00:57:44;5.30;;;4.80;;
2011;SDS011;1009;51.436;6.972;2023-06-14T01:00:11;4.90;;;4.00;;
2011;SDS011;1009;51.436;6.972;2023-06-14T01:02:39;5.37;;;4.33;;
2011;SDS011;1009;51.436;6.972;2023-06-14T01:05:07;5.90;;;4.80;;
2011;SDS011;1009;51.436;6.972;2023-06-14T01:07:38;4.63;;;3.73;;
2011;SDS011;1009;51.436;6.972;2023-06-14T01:10:17;5.07;;;4.40;;
2011;SDS011;1009;51.436;6.972;2023-06-14T01:13:02;8.53;;;4.83;;
2011;SDS011;1009;51.436;6.972;2023-06-14T01:15:36;5.80;;;3.97;;
2011;SDS011;1009;51.436;6.972;2023-06-14T01:18:04;6.77;;;3.73;;
2011;SDS011;1009;51.436;6.972;2023-06-14T01:20:32;5.57;;;3.67;;
2011;SDS011;1009;51.436;6.972;2023-06-14T01:23:03;4.93;;;3.77;;
2011;SDS011;1009;51.436;6.972;2023-06-14T01:25:30;5.37;;;4.50;;
2011;SDS011;1009;51.436;6.972;2023-06-14T01:27:57;4.23;;;3.83;;
2011;SDS011;1009;51.436;6.972;2023-06-14T01:30:26;6.67;;;4.37;;
2011;SDS011;1009;51.436;6.972;2023-06-14T01:32:55;8.30;;;4.53;;
2011;SDS011;1009;51.436;6.972;2023-06-14T01:35:24;5.00;;;3.93;;
2011;SDS011;1009;51.436;6.972;2023-06-14T01:37:51;4.80;;;3.73;;
2011;SDS011;1009;51.436;6.972;2023-06-14T01:40:20;4.50;;;3.60;;
2011;SDS011;1009;51.436;6.972;2023-06-14T01:42:49;5.10;;;4.10;;
2011;SDS011;1009;51.436;6.972;2023-06-14T01:45:17;4.60;;;3.57;;
2011;SDS011;1009;51.436;6.972;2023-06-14T01:47:45;5.10;;;3.37;;
2011;SDS011;1009;51.436;6.972;2023-06-14T01:50:12;5.17;;;3.90;;
2011;SDS011;1009;51.436;6.972;2023-06-14T01:52:39;4.07;;;3.40;;
2011;SDS011;1009;51.436;6.972;2023-06-14T01:55:06;4.70;;;3.77;;
2011;SDS011;1009;51.436;6.972;2023-06-14T01:57:35;4.70;;;3.80;;
2011;SDS011;1009;51.436;6.972;2023-06-14T02:00:02;5.00;;;4.10;;
2011;SDS011;1009;51.436;6.972;2023-06-14T02:02:29;4.63;;;4.00;;
2011;SDS011;1009;51.436;6.972;2023-06-14T02:04:56;6.97;;;4.40;;
2011;SDS011;1009;51.436;6.972;2023-06-14T02:07:23;4.40;;;4.00;;
2011;SDS011;1009;51.436;6.972;2023-06-14T02:09:50;4.40;;;3.60;;
2011;SDS011;1009;51.436;6.972;2023-06-14T02:12:16;5.80;;;4.27;;
2011;SDS011;1009;51.436;6.972;2023-06-14T02:14:44;5.03;;;3.67;;
2011;SDS011;1009;51.436;6.972;2023-06-14T02:17:11;4.17;;;3.27;;
2011;SDS011;1009;51.436;6.972;2023-06-14T02:19:38;6.73;;;4.00;;
2011;SDS011;1009;51.436;6.972;2023-06-14T02:22:05;7.43;;;3.73;;
2011;SDS011;1009;51.436;6.972;2023-06-14T02:24:32;6.40;;;4.03;;
2011;SDS011;1009;51.436;6.972;2023-06-14T02:26:59;5.70;;;3.57;;
2011;SDS011;1009;51.436;6.972;2023-06-14T02:29:26;8.37;;;4.00;;
2011;SDS011;1009;51.436;6.972;2023-06-14T02:31:54;4.23;;;3.40;;
2011;SDS011;1009;51.436;6.972;2023-06-14T02:34:20;7.03;;;3.50;;
2011;SDS011;1009;51.436;6.972;2023-06-14T02:36:47;4.50;;;4.10;;
2011;SDS011;1009;51.436;6.972;2023-06-14T02:39:14;4.73;;;3.10;;
2011;SDS011;1009;51.436;6.972;2023-06-14T02:41:42;3.60;;;3.10;;
2011;SDS011;1009;51.436;6.972;2023-06-14T02:44:09;5.27;;;4.03;;
2011;SDS011;1009;51.436;6.972;2023-06-14T02:46:37;5.60;;;3.60;;
2011;SDS011;1009;51.436;6.972;2023-06-14T02:49:06;4.43;;;3.33;;
2011;SDS011;1009;51.436;6.972;2023-06-14T02:51:32;4.20;;;3.50;;
2011;SDS011;1009;51.436;6.972;2023-06-14T02:53:59;4.63;;;3.80;;
2011;SDS011;1009;51.436;6.972;2023-06-14T02:56:26;5.50;;;4.47;;
2011;SDS011;1009;51.436;6.972;2023-06-14T02:58:53;6.13;;;4.50;;
2011;SDS011;1009;51.436;6.972;2023-06-14T03:01:19;6.33;;;4.30;;
2011;SDS011;1009;51.436;6.972;2023-06-14T03:03:46;4.90;;;4.20;;
2011;SDS011;1009;51.436;6.972;2023-06-14T03:06:14;6.63;;;3.60;;
2011;SDS011;1009;51.436;6.972;2023-06-14T03:08:41;4.10;;;3.30;;
2011;SDS011;1009;51.436;6.972;2023-06-14T03:11:09;6.40;;;3.63;;
2011;SDS011;1009;51.436;6.972;2023-06-14T03:13:35;7.57;;;4.60;;
2011;SDS011;1009;51.436;6.972;2023-06-14T03:16:03;4.53;;;3.37;;
2011;SDS011;1009;51.436;6.972;2023-06-14T03:18:32;7.80;;;3.87;;
2011;SDS011;1009;51.436;6.972;2023-06-14T03:21:00;4.33;;;3.60;;
2011;SDS011;1009;51.436;6.972;2023-06-14T03:23:29;6.07;;;3.57;;
2011;SDS011;1009;51.436;6.972;2023-06-14T03:25:55;5.10;;;3.87;;
2011;SDS011;1009;51.436;6.972;2023-06-14T03:28:22;5.00;;;3.30;;
2011;SDS011;1009;51.436;6.972;2023-06-14T03:30:49;10.70;;;3.80;;
2011;SDS011;1009;51.436;6.972;2023-06-14T03:33:16;5.50;;;3.93;;
2011;SDS011;1009;51.436;6.972;2023-06-14T03:35:43;4.47;;;3.73;;
2011;SDS011;1009;51.436;6.972;2023-06-14T03:38:10;6.10;;;3.73;;
2011;SDS011;1009;51.436;6.972;2023-06-14T03:40:38;4.17;;;3.60;;
2011;SDS011;1009;51.436;6.972;2023-06-14T03:43:04;8.77;;;4.17;;
2011;SDS011;1009;51.436;6.972;2023-06-14T03:45:31;3.97;;;2.90;;
2011;SDS011;1009;51.436;6.972;2023-06-14T03:47:58;3.73;;;3.10;;
2011;SDS011;1009;51.436;6.972;2023-06-14T03:50:25;3.67;;;3.20;;
2011;SDS011;1009;51.436;6.972;2023-06-14T03:52:53;4.30;;;3.50;;
2011;SDS011;1009;51.436;6.972;2023-06-14T03:55:19;4.33;;;3.93;;
2011;SDS011;1009;51.436;6.972;2023-06-14T03:57:47;3.73;;;3.07;;
2011;SDS011;1009;51.436;6.972;2023-06-14T04:00:14;6.37;;;3.20;;
2011;SDS011;1009;51.436;6.972;2023-06-14T04:02:41;3.67;;;3.37;;
2011;SDS011;1009;51.436;6.972;2023-06-14T04:05:09;4.27;;;3.03;;
2011;SDS011;1009;51.436;6.972;2023-06-14T04:07:36;8.83;;;3.70;;
2011;SDS011;1009;51.436;6.972;2023-06-14T04:10:05;8.00;;;4.00;;
2011;SDS011;1009;51.436;6.972;2023-06-14T04:12:33;3.63;;;2.90;;
2011;SDS011;1009;51.436;6.972;2023-06-14T04:15:01;4.17;;;3.30;;
2011;SDS011;1009;51.436;6.972;2023-06-14T04:17:33;4.13;;;3.40;;
2011;SDS011;1009;51.436;6.972;2023-06-14T04:20:00;5.30;;;3.80;;
2011;SDS011;1009;51.436;6.972;2023-06-14T04:22:28;4.00;;;3.23;;
2011;SDS011;1009;51.436;6.972;2023-06-14T04:24:55;4.90;;;3.80;;
2011;SDS011;1009;51.436;6.972;2023-06-14T04:27:22;8.20;;;3.73;;
2011;SDS011;1009;51.436;6.972;2023-06-14T04:29:51;6.03;;;3.40;;
2011;SDS011;1009;51.436;6.972;2023-06-14T04:32:23;6.97;;;2.97;;
2011;SDS011;1009;51.436;6.972;2023-06-14T04:34:51;5.03;;;3.10;;
2011;SDS011;1009;51.436;6.972;2023-06-14T04:37:18;7.13;;;3.20;;
2011;SDS011;1009;51.436;6.972;2023-06-14T04:39:46;7.20;;;3.30;;
2011;SDS011;1009;51.436;6.972;2023-06-14T04:42:13;4.23;;;3.03;;
2011;SDS011;1009;51.436;6.972;2023-06-14T04:44:42;3.93;;;3.17;;
2011;SDS011;1009;51.436;6.972;2023-06-14T04:47:15;6.50;;;2.83;;
2011;SDS011;1009;51.436;6.972;2023-06-14T04:49:43;4.00;;;2.80;;
2011;SDS011;1009;51.436;6.972;2023-06-14T04:52:11;3.70;;;2.83;;
2011;SDS011;1009;51.436;6.972;2023-06-14T04:54:38;4.13;;;3.20;;
2011;SDS011;1009;51.436;6.972;2023-06-14T04:57:06;4.40;;;3.00;;
2011;SDS011;1009;51.436;6.972;2023-06-14T04:59:34;10.40;;;3.47;;
2011;SDS011;1009;51.436;6.972;2023-06-14T05:02:01;4.57;;;3.37;;
2011;SDS011;1009;51.436;6.972;2023-06-14T05:04:28;7.50;;;3.97;;
2011;SDS011;1009;51.436;6.972;2023-06-14T05:06:56;4.67;;;3.40;;
2011;SDS011;1009;51.436;6.972;2023-06-14T05:09:23;5.27;;;2.80;;
2011;SDS011;1009;51.436;6.972;2023-06-14T05:11:50;3.50;;;3.20;;
2011;SDS011;1009;51.436;6.972;2023-06-14T05:14:17;4.60;;;2.63;;
2011;SDS011;1009;51.436;6.972;2023-06-14T05:16:44;3.50;;;2.57;;
2011;SDS011;1009;51.436;6.972;2023-06-14T05:19:11;4.03;;;3.20;;
2011;SDS011;1009;51.436;6.972;2023-06-14T05:21:37;3.53;;;2.90;;
2011;SDS011;1009;51.436;6.972;2023-06-14T05:24:06;9.20;;;3.87;;
2011;SDS011;1009;51.436;6.972;2023-06-14T05:26:34;13.27;;;4.13;;
2011;SDS011;1009;51.436;6.972;2023-06-14T05:29:00;4.43;;;3.10;;
2011;SDS011;1009;51.436;6.972;2023-06-14T05:31:28;8.03;;;3.10;;
2011;SDS011;1009;51.436;6.972;2023-06-14T05:33:55;3.93;;;3.10;;
2011;SDS011;1009;51.436;6.972;2023-06-14T05:36:21;3.57;;;2.70;;
2011;SDS011;1009;51.436;6.972;2023-06-14T05:38:48;3.97;;;2.80;;
2011;SDS011;1009;51.436;6.972;2023-06-14T05:41:17;3.73;;;2.40;;
2011;SDS011;1009;51.436;6.972;2023-06-14T05:43:45;7.37;;;3.03;;
2011;SDS011;1009;51.436;6.972;2023-06-14T05:46:12;4.77;;;3.10;;
2011;SDS011;1009;51.436;6.972;2023-06-14T05:48:39;3.10;;;2.80;;
2011;SDS011;1009;51.436;6.972;2023-06-14T05:51:06;3.57;;;2.67;;
2011;SDS011;1009;51.436;6.972;2023-06-14T05:53:33;17.00;;;4.07;;
2011;SDS011;1009;51.436;6.972;2023-06-14T05:56:00;10.03;;;3.80;;
2011;SDS011;1009;51.436;6.972;2023-06-14T05:58:28;6.63;;;3.30;;
2011;SDS011;1009;51.436;6.972;2023-06-14T06:00:55;8.37;;;3.50;;
2011;SDS011;1009;51.436;6.972;2023-06-14T06:03:22;3.43;;;2.93;;
2011;SDS011;1009;51.436;6.972;2023-06-14T06:05:49;3.50;;;2.80;;
2011;SDS011;1009;51.436;6.972;2023-06-14T06:08:16;5.33;;;3.17;;
2011;SDS011;1009;51.436;6.972;2023-06-14T06:10:43;5.40;;;3.30;;
2011;SDS011;1009;51.436;6.972;2023-06-14T06:13:10;6.53;;;2.63;;
2011;SDS011;1009;51.436;6.972;2023-06-14T06:15:38;3.47;;;2.90;;
2011;SDS011;1009;51.436;6.972;2023-06-14T06:18:04;7.63;;;3.67;;
2011;SDS011;1009;51.436;6.972;2023-06-14T06:20:31;6.17;;;2.73;;
2011;SDS011;1009;51.436;6.972;2023-06-14T06:22:58;3.73;;;3.20;;
2011;SDS011;1009;51.436;6.972;2023-06-14T06:25:25;7.60;;;2.87;;
2011;SDS011;1009;51.436;6.972;2023-06-14T06:27:52;3.63;;;3.23;;
2011;SDS011;1009;51.436;6.972;2023-06-14T06:30:19;3.70;;;2.70;;
2011;SDS011;1009;51.436;6.972;2023-06-14T06:32:48;4.13;;;3.03;;
2011;SDS011;1009;51.436;6.972;2023-06-14T06:35:15;2.90;;;2.47;;
2011;SDS011;1009;51.436;6.972;2023-06-14T06:37:42;3.73;;;2.67;;
2011;SDS011;1009;51.436;6.972;2023-06-14T06:40:09;3.20;;;2.50;;
2011;SDS011;1009;51.436;6.972;2023-06-14T06:42:37;12.10;;;2.80;;
2011;SDS011;1009;51.436;6.972;2023-06-14T06:45:04;7.60;;;2.27;;
2011;SDS011;1009;51.436;6.972;2023-06-14T06:47:32;2.40;;;1.83;;
2011;SDS011;1009;51.436;6.972;2023-06-14T06:50:00;2.00;;;1.80;;
2011;SDS011;1009;51.436;6.972;2023-06-14T06:52:27;4.43;;;2.10;;
2011;SDS011;1009;51.436;6.972;2023-06-14T06:54:54;2.40;;;2.20;;
2011;SDS011;1009;51.436;6.972;2023-06-14T06:57:20;2.50;;;1.97;;
2011;SDS011;1009;51.436;6.972;2023-06-14T06:59:48;5.53;;;1.57;;
2011;SDS011;1009;51.436;6.972;2023-06-14T07:02:15;2.53;;;1.63;;
2011;SDS011;1009;51.436;6.972;2023-06-14T07:04:42;5.47;;;2.00;;
2011;SDS011;1009;51.436;6.972;2023-06-14T07:07:10;2.67;;;1.80;;
2011;SDS011;1009;51.436;6.972;2023-06-14T07:09:36;2.17;;;1.50;;
2011;SDS011;1009;51.436;6.972;2023-06-14T07:12:03;2.60;;;1.70;;
2011;SDS011;1009;51.436;6.972;2023-06-14T07:14:31;2.70;;;1.90;;
2011;SDS011;1009;51.436;6.972;2023-06-14T07:16:58;3.40;;;1.90;;
2011;SDS011;1009;51.436;6.972;2023-06-14T07:19:25;2.50;;;2.07;;
2011;SDS011;1009;51.436;6.972;2023-06-14T07:21:51;2.93;;;2.00;;
2011;SDS011;1009;51.436;6.972;2023-06-14T07:24:20;6.93;;;1.87;;
2011;SDS011;1009;51.436;6.972;2023-06-14T07:26:47;3.83;;;1.70;;
2011;SDS011;1009;51.436;6.972;2023-06-14T07:29:14;3.30;;;1.60;;
2011;SDS011;1009;51.436;6.972;2023-06-14T07:31:41;2.10;;;1.60;;
2011;SDS011;1009;51.436;6.972;2023-06-14T07:34:08;3.07;;;1.80;;
2011;SDS011;1009;51.436;6.972;2023-06-14T07:36:35;1.67;;;1.57;;
2011;SDS011;1009;51.436;6.972;2023-06-14T07:39:03;1.60;;;1.50;;
2011;SDS011;1009;51.436;6.972;2023-06-14T07:41:32;1.73;;;1.63;;
2011;SDS011;1009;51.436;6.972;2023-06-14T07:43:59;4.80;;;1.53;;
2011;SDS011;1009;51.436;6.972;2023-06-14T07:46:26;2.20;;;1.57;;
2011;SDS011;1009;51.436;6.972;2023-06-14T07:48:53;3.20;;;1.83;;
2011;SDS011;1009;51.436;6.972;2023-06-14T07:51:19;2.00;;;1.60;;
2011;SDS011;1009;51.436;6.972;2023-06-14T07:53:47;2.43;;;2.10;;
2011;SDS011;1009;51.436;6.972;2023-06-14T07:56:14;3.63;;;1.63;;
2011;SDS011;1009;51.436;6.972;2023-06-14T07:58:42;2.40;;;1.67;;
2011;SDS011;1009;51.436;6.972;2023-06-14T08:01:09;2.40;;;1.87;;
2011;SDS011;1009;51.436;6.972;2023-06-14T08:03:36;3.93;;;1.70;;
2011;SDS011;1009;51.436;6.972;2023-06-14T08:06:03;2.30;;;1.90;;
2011;SDS011;1009;51.436;6.972;2023-06-14T08:08:31;1.60;;;1.50;;
2011;SDS011;1009;51.436;6.972;2023-06-14T08:10:57;2.93;;;1.80;;
2011;SDS011;1009;51.436;6.972;2023-06-14T08:13:24;3.13;;;2.00;;
2011;SDS011;1009;51.436;6.972;2023-06-14T08:15:52;2.80;;;1.70;;
2011;SDS011;1009;51.436;6.972;2023-06-14T08:18:20;2.60;;;1.60;;
2011;SDS011;1009;51.436;6.972;2023-06-14T08:20:46;4.20;;;2.03;;
2011;SDS011;1009;51.436;6.972;2023-06-14T08:23:13;3.67;;;2.33;;
2011;SDS011;1009;51.436;6.972;2023-06-14T08:25:40;2.97;;;1.50;;
2011;SDS011;1009;51.436;6.972;2023-06-14T08:28:07;5.00;;;2.07;;
2011;SDS011;1009;51.436;6.972;2023-06-14T08:30:34;2.63;;;1.90;;
2011;SDS011;1009;51.436;6.972;2023-06-14T08:33:02;2.20;;;1.87;;
2011;SDS011;1009;51.436;6.972;2023-06-14T08:35:29;1.80;;;1.47;;
2011;SDS011;1009;51.436;6.972;2023-06-14T08:37:55;3.10;;;2.27;;
2011;SDS011;1009;51.436;6.972;2023-06-14T08:40:22;2.83;;;1.97;;
2011;SDS011;1009;51.436;6.972;2023-06-14T08:42:50;2.43;;;1.90;;
2011;SDS011;1009;51.436;6.972;2023-06-14T08:45:18;2.47;;;1.93;;
2011;SDS011;1009;51.436;6.972;2023-06-14T08:47:45;2.37;;;2.00;;
2011;SDS011;1009;51.436;6.972;2023-06-14T08:50:18;2.93;;;2.07;;
2011;SDS011;1009;51.436;6.972;2023-06-14T08:52:46;3.93;;;1.47;;
2011;SDS011;1009;51.436;6.972;2023-06-14T08:55:17;1.83;;;1.70;;
2011;SDS011;1009;51.436;6.972;2023-06-14T08:57:45;4.47;;;2.27;;
2011;SDS011;1009;51.436;6.972;2023-06-14T09:00:14;3.20;;;1.87;;
2011;SDS011;1009;51.436;6.972;2023-06-14T09:02:42;2.37;;;1.70;;
2011;SDS011;1009;51.436;6.972;2023-06-14T09:05:09;3.20;;;2.00;;
2011;SDS011;1009;51.436;6.972;2023-06-14T09:07:39;2.13;;;1.93;;
2011;SDS011;1009;51.436;6.972;2023-06-14T09:10:07;3.50;;;2.20;;
2011;SDS011;1009;51.436;6.972;2023-06-14T09:12:35;2.37;;;1.67;;
2011;SDS011;1009;51.436;6.972;2023-06-14T09:15:02;3.93;;;1.90;;
2011;SDS011;1009;51.436;6.972;2023-06-14T09:17:32;3.60;;;1.90;;
2011;SDS011;1009;51.436;6.972;2023-06-14T09:20:00;3.10;;;1.90;;
2011;SDS011;1009;51.436;6.972;2023-06-14T09:22:30;2.23;;;1.97;;
2011;SDS011;1009;51.436;6.972;2023-06-14T09:24:58;1.90;;;1.30;;
2011;SDS011;1009;51.436;6.972;2023-06-14T09:27:25;2.17;;;1.77;;
2011;SDS011;1009;51.436;6.972;2023-06-14T09:29:52;2.30;;;1.97;;
2011;SDS011;1009;51.436;6.972;2023-06-14T09:32:19;2.47;;;1.40;;
2011;SDS011;1009;51.436;6.972;2023-06-14T09:34:46;3.40;;;1.60;;
2011;SDS011;1009;51.436;6.972;2023-06-14T09:37:13;2.70;;;2.00;;
2011;SDS011;1009;51.436;6.972;2023-06-14T09:39:53;2.10;;;1.77;;
2011;SDS011;1009;51.436;6.972;2023-06-14T09:42:21;1.70;;;1.50;;
2011;SDS011;1009;51.436;6.972;2023-06-14T09:44:50;2.60;;;1.50;;
2011;SDS011;1009;51.436;6.972;2023-06-14T09:47:18;2.63;;;1.60;;
2011;SDS011;1009;51.436;6.972;2023-06-14T09:49:46;3.40;;;1.30;;
2011;SDS011;1009;51.436;6.972;2023-06-14T09:52:14;2.10;;;1.57;;
2011;SDS011;1009;51.436;6.972;2023-06-14T09:54:42;1.93;;;1.40;;
2011;SDS011;1009;51.436;6.972;2023-06-14T09:57:11;2.10;;;1.63;;
2011;SDS011;1009;51.436;6.972;2023-06-14T09:59:41;1.30;;;1.03;;
2011;SDS011;1009;51.436;6.972;2023-06-14T10:02:11;1.73;;;1.30;;
2011;SDS011;1009;51.436;6.972;2023-06-14T10:04:44;2.23;;;1.10;;
2011;SDS011;1009;51.436;6.972;2023-06-14T10:07:16;2.80;;;1.50;;
2011;SDS011;1009;51.436;6.972;2023-06-14T10:09:46;1.70;;;1.10;;
2011;SDS011;1009;51.436;6.972;2023-06-14T10:12:15;1.70;;;1.40;;
2011;SDS011;1009;51.436;6.972;2023-06-14T10:14:48;2.40;;;1.57;;
2011;SDS011;1009;51.436;6.972;2023-06-14T10:17:20;3.47;;;1.20;;
2011;SDS011;1009;51.436;6.972;2023-06-14T10:19:55;2.10;;;1.37;;
2011;SDS011;1009;51.436;6.972;2023-06-14T10:22:30;2.30;;;1.33;;
2011;SDS011;1009;51.436;6.972;2023-06-14T10:25:01;3.57;;;1.23;;
2011;SDS011;1009;51.436;6.972;2023-06-14T10:27:37;1.50;;;1.13;;
2011;SDS011;1009;51.436;6.972;2023-06-14T10:30:06;1.03;;;0.83;;
2011;SDS011;1009;51.436;6.972;2023-06-14T10:32:34;2.30;;;1.33;;
2011;SDS011;1009;51.436;6.972;2023-06-14T10:35:01;1.00;;;0.90;;
2011;SDS011;1009;51.436;6.972;2023-06-14T10:37:31;2.40;;;1.00;;
2011;SDS011;1009;51.436;6.972;2023-06-14T10:39:58;2.30;;;1.23;;
2011;SDS011;1009;51.436;6.972;2023-06-14T10:42:27;1.93;;;1.30;;
2011;SDS011;1009;51.436;6.972;2023-06-14T10:44:57;1.77;;;1.27;;
2011;SDS011;1009;51.436;6.972;2023-06-14T10:47:29;1.20;;;0.90;;
2011;SDS011;1009;51.436;6.972;2023-06-14T10:49:57;2.17;;;1.30;;
2011;SDS011;1009;51.436;6.972;2023-06-14T10:52:32;3.27;;;1.23;;
2011;SDS011;1009;51.436;6.972;2023-06-14T10:55:05;1.60;;;1.30;;
2011;SDS011;1009;51.436;6.972;2023-06-14T10:57:34;2.00;;;1.13;;
2011;SDS011;1009;51.436;6.972;2023-06-14T11:00:02;1.47;;;1.37;;
2011;SDS011;1009;51.436;6.972;2023-06-14T11:02:51;2.03;;;0.93;;
2011;SDS011;1009;51.436;6.972;2023-06-14T11:05:39;2.50;;;1.37;;
2011;SDS011;1009;51.436;6.972;2023-06-14T11:08:22;3.20;;;1.10;;
2011;SDS011;1009;51.436;6.972;2023-06-14T11:10:59;1.63;;;1.33;;
2011;SDS011;1009;51.436;6.972;2023-06-14T11:13:26;1.60;;;1.43;;
2011;SDS011;1009;51.436;6.972;2023-06-14T11:15:53;2.73;;;1.37;;
2011;SDS011;1009;51.436;6.972;2023-06-14T11:18:24;2.63;;;1.30;;
2011;SDS011;1009;51.436;6.972;2023-06-14T11:20:52;1.83;;;1.37;;
2011;SDS011;1009;51.436;6.972;2023-06-14T11:23:20;4.47;;;1.23;;
2011;SDS011;1009;51.436;6.972;2023-06-14T11:25:49;1.10;;;0.90;;
2011;SDS011;1009;51.436;6.972;2023-06-14T11:28:16;1.73;;;1.03;;
2011;SDS011;1009;51.436;6.972;2023-06-14T11:30:44;2.63;;;1.40;;
2011;SDS011;1009;51.436;6.972;2023-06-14T11:33:11;2.23;;;1.40;;
2011;SDS011;1009;51.436;6.972;2023-06-14T11:35:44;1.40;;;1.23;;
2011;SDS011;1009;51.436;6.972;2023-06-14T11:38:11;2.00;;;1.30;;
2011;SDS011;1009;51.436;6.972;2023-06-14T11:40:38;1.63;;;1.40;;
2011;SDS011;1009;51.436;6.972;2023-06-14T11:43:05;3.13;;;1.73;;
2011;SDS011;1009;51.436;6.972;2023-06-14T11:45:32;1.33;;;0.93;;
2011;SDS011;1009;51.436;6.972;2023-06-14T11:47:58;1.90;;;1.40;;
2011;SDS011;1009;51.436;6.972;2023-06-14T11:50:25;3.30;;;1.43;;
2011;SDS011;1009;51.436;6.972;2023-06-14T11:52:54;1.50;;;1.40;;
2011;SDS011;1009;51.436;6.972;2023-06-14T11:55:22;3.90;;;1.50;;
2011;SDS011;1009;51.436;6.972;2023-06-14T11:57:50;1.60;;;1.50;;
2011;SDS011;1009;51.436;6.972;2023-06-14T12:00:17;1.40;;;1.30;;
2011;SDS011;1009;51.436;6.972;2023-06-14T12:02:52;2.17;;;1.27;;
2011;SDS011;1009;51.436;6.972;2023-06-14T12:05:20;4.87;;;1.30;;
2011;SDS011;1009;51.436;6.972;2023-06-14T12:07:47;1.70;;;1.50;;
2011;SDS011;1009;51.436;6.972;2023-06-14T12:10:16;3.10;;;1.30;;
2011;SDS011;1009;51.436;6.972;2023-06-14T12:12:43;3.87;;;1.70;;
2011;SDS011;1009;51.436;6.972;2023-06-14T12:15:10;1.30;;;1.20;;
2011;SDS011;1009;51.436;6.972;2023-06-14T12:17:38;2.00;;;1.50;;
2011;SDS011;1009;51.436;6.972;2023-06-14T12:20:07;1.53;;;1.07;;
2011;SDS011;1009;51.436;6.972;2023-06-14T12:22:38;3.83;;;1.50;;
2011;SDS011;1009;51.436;6.972;2023-06-14T12:25:06;2.20;;;1.80;;
2011;SDS011;1009;51.436;6.972;2023-06-14T12:27:36;2.00;;;1.30;;
2011;SDS011;1009;51.436;6.972;2023-06-14T12:30:06;4.03;;;1.70;;
2011;SDS011;1009;51.436;6.972;2023-06-14T12:32:34;2.07;;;1.70;;
2011;SDS011;1009;51.436;6.972;2023-06-14T12:35:01;5.33;;;2.30;;
2011;SDS011;1009;51.436;6.972;2023-06-14T12:37:28;3.93;;;1.90;;
2011;SDS011;1009;51.436;6.972;2023-06-14T12:39:54;2.33;;;2.13;;
2011;SDS011;1009;51.436;6.972;2023-06-14T12:42:21;2.93;;;1.93;;
2011;SDS011;1009;51.436;6.972;2023-06-14T12:44:49;2.17;;;1.97;;
2011;SDS011;1009;51.436;6.972;2023-06-14T12:47:16;4.30;;;1.80;;
2011;SDS011;1009;51.436;6.972;2023-06-14T12:49:42;4.33;;;1.60;;
2011;SDS011;1009;51.436;6.972;2023-06-14T12:52:09;2.03;;;1.93;;
2011;SDS011;1009;51.436;6.972;2023-06-14T12:54:36;3.47;;;1.80;;
2011;SDS011;1009;51.436;6.972;2023-06-14T12:57:04;4.60;;;1.50;;
2011;SDS011;1009;51.436;6.972;2023-06-14T12:59:31;4.37;;;2.10;;
2011;SDS011;1009;51.436;6.972;2023-06-14T13:02:01;1.80;;;1.60;;
2011;SDS011;1009;51.436;6.972;2023-06-14T13:04:37;2.13;;;1.60;;
2011;SDS011;1009;51.436;6.972;2023-06-14T13:07:04;2.73;;;1.90;;
2011;SDS011;1009;51.436;6.972;2023-06-14T13:09:31;4.23;;;1.87;;
2011;SDS011;1009;51.436;6.972;2023-06-14T13:11:58;3.90;;;2.17;;
2011;SDS011;1009;51.436;6.972;2023-06-14T13:14:25;3.57;;;2.00;;
2011;SDS011;1009;51.436;6.972;2023-06-14T13:16:51;1.67;;;1.57;;
2011;SDS011;1009;51.436;6.972;2023-06-14T13:19:20;2.90;;;1.57;;
2011;SDS011;1009;51.436;6.972;2023-06-14T13:21:47;3.20;;;1.80;;
2011;SDS011;1009;51.436;6.972;2023-06-14T13:24:14;2.00;;;1.80;;
2011;SDS011;1009;51.436;6.972;2023-06-14T13:26:41;2.70;;;2.10;;
2011;SDS011;1009;51.436;6.972;2023-06-14T13:29:08;2.23;;;1.77;;
2011;SDS011;1009;51.436;6.972;2023-06-14T13:31:35;1.70;;;1.60;;
2011;SDS011;1009;51.436;6.972;2023-06-14T13:34:02;2.67;;;2.03;;
2011;SDS011;1009;51.436;6.972;2023-06-14T13:36:30;1.70;;;1.60;;
2011;SDS011;1009;51.436;6.972;2023-06-14T13:38:57;3.53;;;1.80;;
2011;SDS011;1009;51.436;6.972;2023-06-14T13:41:25;2.77;;;1.97;;
2011;SDS011;1009;51.436;6.972;2023-06-14T13:43:56;2.20;;;2.00;;
2011;SDS011;1009;51.436;6.972;2023-06-14T13:46:23;2.77;;;2.00;;
2011;SDS011;1009;51.436;6.972;2023-06-14T13:48:50;2.57;;;1.80;;
2011;SDS011;1009;51.436;6.972;2023-06-14T13:51:17;2.20;;;1.90;;
2011;SDS011;1009;51.436;6.972;2023-06-14T13:53:47;3.37;;;1.97;;
2011;SDS011;1009;51.436;6.972;2023-06-14T13:56:15;2.07;;;1.87;;
2011;SDS011;1009;51.436;6.972;2023-06-14T13:58:43;2.80;;;1.90;;
2011;SDS011;1009;51.436;6.972;2023-06-14T14:01:10;3.90;;;2.30;;
2011;SDS011;1009;51.436;6.972;2023-06-14T14:03:37;2.30;;;1.87;;
2011;SDS011;1009;51.436;6.972;2023-06-14T14:06:04;3.27;;;2.50;;
2011;SDS011;1009;51.436;6.972;2023-06-14T14:08:32;3.43;;;1.90;;
2011;SDS011;1009;51.436;6.972;2023-06-14T14:11:00;1.97;;;1.60;;
2011;SDS011;1009;51.436;6.972;2023-06-14T14:13:27;6.80;;;2.13;;
2011;SDS011;1009;51.436;6.972;2023-06-14T14:15:53;3.13;;;1.90;;
2011;SDS011;1009;51.436;6.972;2023-06-14T14:18:20;2.10;;;1.70;;
2011;SDS011;1009;51.436;6.972;2023-06-14T14:20:47;3.07;;;2.23;;
2011;SDS011;1009;51.436;6.972;2023-06-14T14:23:13;2.97;;;2.03;;
2011;SDS011;1009;51.436;6.972;2023-06-14T14:25:40;4.53;;;2.20;;
2011;SDS011;1009;51.436;6.972;2023-06-14T14:28:08;4.30;;;2.13;;
2011;SDS011;1009;51.436;6.972;2023-06-14T14:30:36;2.77;;;2.10;;
2011;SDS011;1009;51.436;6.972;2023-06-14T14:33:04;2.27;;;2.07;;
2011;SDS011;1009;51.436;6.972;2023-06-14T14:35:31;2.20;;;2.00;;
2011;SDS011;1009;51.436;6.972;2023-06-14T14:37:58;2.87;;;1.90;;
2011;SDS011;1009;51.436;6.972;2023-06-14T14:40:25;3.70;;;2.20;;
2011;SDS011;1009;51.436;6.972;2023-06-14T14:42:52;3.83;;;2.30;;
2011;SDS011;1009;51.436;6.972;2023-06-14T14:45:20;2.80;;;2.40;;
2011;SDS011;1009;51.436;6.972;2023-06-14T14:47:47;1.93;;;1.80;;
2011;SDS011;1009;51.436;6.972;2023-06-14T14:50:13;1.83;;;1.70;;
2011;SDS011;1009;51.436;6.972;2023-06-14T14:52:41;6.07;;;2.70;;
2011;SDS011;1009;51.436;6.972;2023-06-14T14:55:08;3.50;;;1.70;;
2011;SDS011;1009;51.436;6.972;2023-06-14T14:57:35;7.17;;;2.43;;
2011;SDS011;1009;51.436;6.972;2023-06-14T15:00:02;4.53;;;2.37;;
2011;SDS011;1009;51.436;6.972;2023-06-14T15:02:31;3.50;;;2.40;;
2011;SDS011;1009;51.436;6.972;2023-06-14T15:04:58;2.73;;;2.23;;
2011;SDS011;1009;51.436;6.972;2023-06-14T15:07:26;2.30;;;2.00;;
2011;SDS011;1009;51.436;6.972;2023-06-14T15:09:53;3.33;;;2.40;;
2011;SDS011;1009;51.436;6.972;2023-06-14T15:12:20;2.37;;;2.17;;
2011;SDS011;1009;51.436;6.972;2023-06-14T15:14:49;2.37;;;2.03;;
2011;SDS011;1009;51.436;6.972;2023-06-14T15:17:16;5.53;;;2.30;;
2011;SDS011;1009;51.436;6.972;2023-06-14T15:19:45;4.20;;;2.53;;